sensor_id;sensor_type;location;lat;lon;timestamp;P1;durP1;ratioP1;P2;durP2;ratioP2
64199;SDS011;50516;52.272;5.136;2024-02-26T00:01:25;6.75;;;4.47;;
64199;SDS011;50516;52.272;5.136;2024-02-26T00:03:51;5.53;;;4.05;;
64199;SDS011;50516;52.272;5.136;2024-02-26T00:06:17;6.15;;;4.55;;
64199;SDS011;50516;52.272;5.136;2024-02-26T00:08:43;5.82;;;4.05;;
64199;SDS011;50516;52.272;5.136;2024-02-26T00:11:08;6.68;;;4.10;;
64199;SDS011;50516;52.272;5.136;2024-02-26T00:13:34;6.05;;;3.60;;
64199;SDS011;50516;52.272;5.136;2024-02-26T00:15:59;6.18;;;4.10;;
64199;SDS011;50516;52.272;5.136;2024-02-26T00:18:24;6.00;;;4.28;;
64199;SDS011;50516;52.272;5.136;2024-02-26T00:20:49;6.38;;;4.53;;
64199;SDS011;50516;52.272;5.136;2024-02-26T00:23:15;4.97;;;3.85;;
64199;SDS011;50516;52.272;5.136;2024-02-26T00:25:41;5.35;;;4.00;;
64199;SDS011;50516;52.272;5.136;2024-02-26T00:28:08;6.70;;;4.65;;
64199;SDS011;50516;52.272;5.136;2024-02-26T00:30:34;6.20;;;4.50;;
64199;SDS011;50516;52.272;5.136;2024-02-26T00:32:59;9.68;;;4.97;;
64199;SDS011;50516;52.272;5.136;2024-02-26T00:35:24;5.55;;;4.35;;
64199;SDS011;50516;52.272;5.136;2024-02-26T00:37:50;7.90;;;5.00;;
64199;SDS011;50516;52.272;5.136;2024-02-26T00:40:15;6.07;;;4.47;;
64199;SDS011;50516;52.272;5.136;2024-02-26T00:42:40;7.05;;;4.85;;
64199;SDS011;50516;52.272;5.136;2024-02-26T00:45:10;8.20;;;4.65;;
64199;SDS011;50516;52.272;5.136;2024-02-26T00:47:36;9.35;;;5.60;;
64199;SDS011;50516;52.272;5.136;2024-02-26T00:50:01;10.65;;;5.90;;
64199;SDS011;50516;52.272;5.136;2024-02-26T00:52:27;7.93;;;5.53;;
64199;SDS011;50516;52.272;5.136;2024-02-26T00:54:52;8.55;;;5.50;;
64199;SDS011;50516;52.272;5.136;2024-02-26T00:57:17;10.75;;;6.60;;
64199;SDS011;50516;52.272;5.136;2024-02-26T00:59:43;8.45;;;5.82;;
64199;SDS011;50516;52.272;5.136;2024-02-26T01:02:08;8.27;;;6.32;;
64199;SDS011;50516;52.272;5.136;2024-02-26T01:04:33;10.30;;;6.93;;
64199;SDS011;50516;52.272;5.136;2024-02-26T01:06:59;10.23;;;6.47;;
64199;SDS011;50516;52.272;5.136;2024-02-26T01:09:24;10.95;;;7.05;;
64199;SDS011;50516;52.272;5.136;2024-02-26T01:11:50;8.05;;;6.55;;
64199;SDS011;50516;52.272;5.136;2024-02-26T01:14:15;10.68;;;6.72;;
64199;SDS011;50516;52.272;5.136;2024-02-26T01:16:41;11.95;;;6.93;;
64199;SDS011;50516;52.272;5.136;2024-02-26T01:19:06;10.50;;;7.32;;
64199;SDS011;50516;52.272;5.136;2024-02-26T01:21:31;13.02;;;7.57;;
64199;SDS011;50516;52.272;5.136;2024-02-26T01:23:57;13.68;;;8.68;;
64199;SDS011;50516;52.272;5.136;2024-02-26T01:26:22;11.13;;;8.00;;
64199;SDS011;50516;52.272;5.136;2024-02-26T01:28:47;11.25;;;7.60;;
64199;SDS011;50516;52.272;5.136;2024-02-26T01:31:13;10.77;;;8.45;;
64199;SDS011;50516;52.272;5.136;2024-02-26T01:33:38;12.68;;;8.35;;
64199;SDS011;50516;52.272;5.136;2024-02-26T01:36:03;11.43;;;8.85;;
64199;SDS011;50516;52.272;5.136;2024-02-26T01:38:29;10.02;;;7.88;;
64199;SDS011;50516;52.272;5.136;2024-02-26T01:40:54;12.48;;;8.40;;
64199;SDS011;50516;52.272;5.136;2024-02-26T01:43:20;10.45;;;7.72;;
64199;SDS011;50516;52.272;5.136;2024-02-26T01:45:45;13.55;;;9.15;;
64199;SDS011;50516;52.272;5.136;2024-02-26T01:48:10;12.65;;;8.93;;
64199;SDS011;50516;52.272;5.136;2024-02-26T01:50:36;12.00;;;8.35;;
64199;SDS011;50516;52.272;5.136;2024-02-26T01:53:03;9.95;;;7.53;;
64199;SDS011;50516;52.272;5.136;2024-02-26T01:55:29;11.32;;;8.57;;
64199;SDS011;50516;52.272;5.136;2024-02-26T01:57:54;12.40;;;7.97;;
64199;SDS011;50516;52.272;5.136;2024-02-26T02:00:20;14.32;;;9.30;;
64199;SDS011;50516;52.272;5.136;2024-02-26T02:02:47;10.60;;;7.68;;
64199;SDS011;50516;52.272;5.136;2024-02-26T02:05:14;13.93;;;8.00;;
64199;SDS011;50516;52.272;5.136;2024-02-26T02:07:42;14.15;;;7.47;;
64199;SDS011;50516;52.272;5.136;2024-02-26T02:10:08;13.27;;;8.43;;
64199;SDS011;50516;52.272;5.136;2024-02-26T02:12:34;11.95;;;8.73;;
64199;SDS011;50516;52.272;5.136;2024-02-26T02:15:01;11.85;;;7.72;;
64199;SDS011;50516;52.272;5.136;2024-02-26T02:17:27;14.68;;;8.45;;
64199;SDS011;50516;52.272;5.136;2024-02-26T02:19:53;10.98;;;8.13;;
64199;SDS011;50516;52.272;5.136;2024-02-26T02:22:18;11.63;;;7.47;;
64199;SDS011;50516;52.272;5.136;2024-02-26T02:24:43;10.60;;;7.95;;
64199;SDS011;50516;52.272;5.136;2024-02-26T02:27:09;11.18;;;8.23;;
64199;SDS011;50516;52.272;5.136;2024-02-26T02:29:35;11.35;;;7.45;;
64199;SDS011;50516;52.272;5.136;2024-02-26T02:32:01;11.52;;;8.20;;
64199;SDS011;50516;52.272;5.136;2024-02-26T02:34:28;11.65;;;7.60;;
64199;SDS011;50516;52.272;5.136;2024-02-26T02:36:54;12.38;;;8.88;;
64199;SDS011;50516;52.272;5.136;2024-02-26T02:39:19;11.70;;;8.52;;
64199;SDS011;50516;52.272;5.136;2024-02-26T02:41:45;11.52;;;8.65;;
64199;SDS011;50516;52.272;5.136;2024-02-26T02:44:11;11.15;;;8.75;;
64199;SDS011;50516;52.272;5.136;2024-02-26T02:46:37;11.40;;;9.35;;
64199;SDS011;50516;52.272;5.136;2024-02-26T02:49:02;15.13;;;9.75;;
64199;SDS011;50516;52.272;5.136;2024-02-26T02:51:27;11.80;;;8.90;;
64199;SDS011;50516;52.272;5.136;2024-02-26T02:53:53;12.10;;;9.13;;
64199;SDS011;50516;52.272;5.136;2024-02-26T02:56:18;13.88;;;9.95;;
64199;SDS011;50516;52.272;5.136;2024-02-26T02:58:43;13.75;;;10.13;;
64199;SDS011;50516;52.272;5.136;2024-02-26T03:01:09;13.55;;;10.02;;
64199;SDS011;50516;52.272;5.136;2024-02-26T03:03:34;15.23;;;10.27;;
64199;SDS011;50516;52.272;5.136;2024-02-26T03:06:01;14.93;;;10.15;;
64199;SDS011;50516;52.272;5.136;2024-02-26T03:08:27;14.43;;;10.45;;
64199;SDS011;50516;52.272;5.136;2024-02-26T03:10:52;14.18;;;9.90;;
64199;SDS011;50516;52.272;5.136;2024-02-26T03:13:17;14.75;;;9.52;;
64199;SDS011;50516;52.272;5.136;2024-02-26T03:15:43;14.00;;;10.15;;
64199;SDS011;50516;52.272;5.136;2024-02-26T03:18:08;13.80;;;10.13;;
64199;SDS011;50516;52.272;5.136;2024-02-26T03:20:34;16.02;;;11.52;;
64199;SDS011;50516;52.272;5.136;2024-02-26T03:22:59;15.93;;;11.02;;
64199;SDS011;50516;52.272;5.136;2024-02-26T03:25:24;16.10;;;10.27;;
64199;SDS011;50516;52.272;5.136;2024-02-26T03:27:50;15.70;;;9.82;;
64199;SDS011;50516;52.272;5.136;2024-02-26T03:30:15;15.80;;;10.43;;
64199;SDS011;50516;52.272;5.136;2024-02-26T03:32:40;15.50;;;10.73;;
64199;SDS011;50516;52.272;5.136;2024-02-26T03:35:06;16.15;;;10.80;;
64199;SDS011;50516;52.272;5.136;2024-02-26T03:37:32;14.55;;;10.43;;
64199;SDS011;50516;52.272;5.136;2024-02-26T03:39:58;16.92;;;11.10;;
64199;SDS011;50516;52.272;5.136;2024-02-26T03:42:23;13.85;;;9.90;;
64199;SDS011;50516;52.272;5.136;2024-02-26T03:44:49;16.92;;;10.30;;
64199;SDS011;50516;52.272;5.136;2024-02-26T03:47:14;15.02;;;10.65;;
64199;SDS011;50516;52.272;5.136;2024-02-26T03:49:39;13.95;;;10.50;;
64199;SDS011;50516;52.272;5.136;2024-02-26T03:52:05;16.92;;;10.95;;
64199;SDS011;50516;52.272;5.136;2024-02-26T03:54:30;15.60;;;10.52;;
64199;SDS011;50516;52.272;5.136;2024-02-26T03:56:55;14.30;;;10.23;;
64199;SDS011;50516;52.272;5.136;2024-02-26T03:59:21;15.25;;;10.60;;
64199;SDS011;50516;52.272;5.136;2024-02-26T04:01:49;17.67;;;10.82;;
64199;SDS011;50516;52.272;5.136;2024-02-26T04:04:14;14.88;;;10.65;;
64199;SDS011;50516;52.272;5.136;2024-02-26T04:06:40;17.42;;;11.35;;
64199;SDS011;50516;52.272;5.136;2024-02-26T04:09:09;15.68;;;10.18;;
64199;SDS011;50516;52.272;5.136;2024-02-26T04:11:35;15.43;;;10.40;;
64199;SDS011;50516;52.272;5.136;2024-02-26T04:14:00;16.60;;;10.57;;
64199;SDS011;50516;52.272;5.136;2024-02-26T04:16:26;16.35;;;10.10;;
64199;SDS011;50516;52.272;5.136;2024-02-26T04:18:51;15.48;;;10.63;;
64199;SDS011;50516;52.272;5.136;2024-02-26T04:21:18;14.23;;;10.05;;
64199;SDS011;50516;52.272;5.136;2024-02-26T04:23:43;17.67;;;11.18;;
64199;SDS011;50516;52.272;5.136;2024-02-26T04:26:09;17.58;;;11.38;;
64199;SDS011;50516;52.272;5.136;2024-02-26T04:28:34;16.27;;;11.00;;
64199;SDS011;50516;52.272;5.136;2024-02-26T04:31:00;17.38;;;10.40;;
64199;SDS011;50516;52.272;5.136;2024-02-26T04:33:25;15.55;;;10.65;;
64199;SDS011;50516;52.272;5.136;2024-02-26T04:35:51;18.75;;;10.93;;
64199;SDS011;50516;52.272;5.136;2024-02-26T04:38:16;15.25;;;10.98;;
64199;SDS011;50516;52.272;5.136;2024-02-26T04:40:41;16.17;;;10.35;;
64199;SDS011;50516;52.272;5.136;2024-02-26T04:43:07;14.77;;;10.10;;
64199;SDS011;50516;52.272;5.136;2024-02-26T04:45:32;16.58;;;11.07;;
64199;SDS011;50516;52.272;5.136;2024-02-26T04:47:57;15.68;;;10.30;;
64199;SDS011;50516;52.272;5.136;2024-02-26T04:50:22;16.33;;;10.50;;
64199;SDS011;50516;52.272;5.136;2024-02-26T04:52:48;17.23;;;10.48;;
64199;SDS011;50516;52.272;5.136;2024-02-26T04:55:14;19.60;;;10.73;;
64199;SDS011;50516;52.272;5.136;2024-02-26T04:57:39;16.80;;;11.57;;
64199;SDS011;50516;52.272;5.136;2024-02-26T05:00:05;16.92;;;10.52;;
64199;SDS011;50516;52.272;5.136;2024-02-26T05:02:30;18.05;;;11.77;;
64199;SDS011;50516;52.272;5.136;2024-02-26T05:04:58;18.80;;;11.65;;
64199;SDS011;50516;52.272;5.136;2024-02-26T05:07:23;18.02;;;11.55;;
64199;SDS011;50516;52.272;5.136;2024-02-26T05:09:49;17.33;;;12.05;;
64199;SDS011;50516;52.272;5.136;2024-02-26T05:12:17;20.27;;;13.40;;
64199;SDS011;50516;52.272;5.136;2024-02-26T05:14:42;17.90;;;11.93;;
64199;SDS011;50516;52.272;5.136;2024-02-26T05:17:07;18.38;;;11.65;;
64199;SDS011;50516;52.272;5.136;2024-02-26T05:19:33;20.02;;;11.52;;
64199;SDS011;50516;52.272;5.136;2024-02-26T05:21:58;22.05;;;14.43;;
64199;SDS011;50516;52.272;5.136;2024-02-26T05:24:23;17.88;;;11.68;;
64199;SDS011;50516;52.272;5.136;2024-02-26T05:26:49;21.27;;;13.57;;
64199;SDS011;50516;52.272;5.136;2024-02-26T05:29:14;22.88;;;13.05;;
64199;SDS011;50516;52.272;5.136;2024-02-26T05:31:42;20.17;;;13.55;;
64199;SDS011;50516;52.272;5.136;2024-02-26T05:34:07;20.88;;;13.60;;
64199;SDS011;50516;52.272;5.136;2024-02-26T05:36:33;19.52;;;12.25;;
64199;SDS011;50516;52.272;5.136;2024-02-26T05:38:59;22.25;;;13.77;;
64199;SDS011;50516;52.272;5.136;2024-02-26T05:41:25;22.00;;;14.15;;
64199;SDS011;50516;52.272;5.136;2024-02-26T05:43:51;22.83;;;13.40;;
64199;SDS011;50516;52.272;5.136;2024-02-26T05:46:17;20.83;;;13.40;;
64199;SDS011;50516;52.272;5.136;2024-02-26T05:48:44;21.95;;;13.73;;
64199;SDS011;50516;52.272;5.136;2024-02-26T05:51:09;23.30;;;15.02;;
64199;SDS011;50516;52.272;5.136;2024-02-26T05:53:35;21.60;;;14.50;;
64199;SDS011;50516;52.272;5.136;2024-02-26T05:56:00;22.77;;;14.35;;
64199;SDS011;50516;52.272;5.136;2024-02-26T05:58:25;25.10;;;15.57;;
64199;SDS011;50516;52.272;5.136;2024-02-26T06:00:51;24.67;;;15.90;;
64199;SDS011;50516;52.272;5.136;2024-02-26T06:03:16;21.48;;;14.82;;
64199;SDS011;50516;52.272;5.136;2024-02-26T06:05:41;26.10;;;16.00;;
64199;SDS011;50516;52.272;5.136;2024-02-26T06:08:08;25.48;;;15.38;;
64199;SDS011;50516;52.272;5.136;2024-02-26T06:10:33;25.30;;;15.90;;
64199;SDS011;50516;52.272;5.136;2024-02-26T06:12:58;28.05;;;17.45;;
64199;SDS011;50516;52.272;5.136;2024-02-26T06:15:24;28.55;;;18.13;;
64199;SDS011;50516;52.272;5.136;2024-02-26T06:17:49;30.55;;;18.95;;
64199;SDS011;50516;52.272;5.136;2024-02-26T06:20:15;29.27;;;18.27;;
64199;SDS011;50516;52.272;5.136;2024-02-26T06:22:40;25.85;;;17.20;;
64199;SDS011;50516;52.272;5.136;2024-02-26T06:25:06;27.98;;;17.55;;
64199;SDS011;50516;52.272;5.136;2024-02-26T06:27:32;30.80;;;19.77;;
64199;SDS011;50516;52.272;5.136;2024-02-26T06:29:57;26.85;;;17.92;;
64199;SDS011;50516;52.272;5.136;2024-02-26T06:32:23;29.25;;;18.95;;
64199;SDS011;50516;52.272;5.136;2024-02-26T06:34:48;28.08;;;18.40;;
64199;SDS011;50516;52.272;5.136;2024-02-26T06:37:13;30.63;;;20.00;;
64199;SDS011;50516;52.272;5.136;2024-02-26T06:39:39;27.42;;;18.30;;
64199;SDS011;50516;52.272;5.136;2024-02-26T06:42:04;28.05;;;16.65;;
64199;SDS011;50516;52.272;5.136;2024-02-26T06:44:30;30.50;;;18.42;;
64199;SDS011;50516;52.272;5.136;2024-02-26T06:46:57;27.33;;;17.52;;
64199;SDS011;50516;52.272;5.136;2024-02-26T06:49:24;29.75;;;18.30;;
64199;SDS011;50516;52.272;5.136;2024-02-26T06:51:50;26.90;;;16.35;;
64199;SDS011;50516;52.272;5.136;2024-02-26T06:54:15;26.23;;;16.17;;
64199;SDS011;50516;52.272;5.136;2024-02-26T06:56:40;26.58;;;18.35;;
64199;SDS011;50516;52.272;5.136;2024-02-26T06:59:05;24.13;;;15.55;;
64199;SDS011;50516;52.272;5.136;2024-02-26T07:01:31;29.30;;;16.27;;
64199;SDS011;50516;52.272;5.136;2024-02-26T07:03:56;25.33;;;16.58;;
64199;SDS011;50516;52.272;5.136;2024-02-26T07:06:21;22.55;;;16.13;;
64199;SDS011;50516;52.272;5.136;2024-02-26T07:08:46;22.55;;;15.23;;
64199;SDS011;50516;52.272;5.136;2024-02-26T07:11:12;22.50;;;14.82;;
64199;SDS011;50516;52.272;5.136;2024-02-26T07:13:37;20.20;;;14.13;;
64199;SDS011;50516;52.272;5.136;2024-02-26T07:16:03;26.48;;;16.17;;
64199;SDS011;50516;52.272;5.136;2024-02-26T07:18:29;21.08;;;13.20;;
64199;SDS011;50516;52.272;5.136;2024-02-26T07:20:54;21.63;;;14.15;;
64199;SDS011;50516;52.272;5.136;2024-02-26T07:23:20;21.10;;;13.93;;
64199;SDS011;50516;52.272;5.136;2024-02-26T07:25:46;20.63;;;13.65;;
64199;SDS011;50516;52.272;5.136;2024-02-26T07:28:13;18.30;;;12.65;;
64199;SDS011;50516;52.272;5.136;2024-02-26T07:30:39;18.63;;;12.40;;
64199;SDS011;50516;52.272;5.136;2024-02-26T07:33:04;19.15;;;12.93;;
64199;SDS011;50516;52.272;5.136;2024-02-26T07:35:30;19.98;;;12.45;;
64199;SDS011;50516;52.272;5.136;2024-02-26T07:37:55;21.77;;;13.43;;
64199;SDS011;50516;52.272;5.136;2024-02-26T07:40:20;21.35;;;12.60;;
64199;SDS011;50516;52.272;5.136;2024-02-26T07:42:46;18.70;;;12.95;;
64199;SDS011;50516;52.272;5.136;2024-02-26T07:45:11;19.33;;;12.55;;
64199;SDS011;50516;52.272;5.136;2024-02-26T07:47:36;21.45;;;11.82;;
64199;SDS011;50516;52.272;5.136;2024-02-26T07:50:05;15.63;;;10.88;;
64199;SDS011;50516;52.272;5.136;2024-02-26T07:52:32;17.92;;;11.57;;
64199;SDS011;50516;52.272;5.136;2024-02-26T07:54:57;17.30;;;10.90;;
64199;SDS011;50516;52.272;5.136;2024-02-26T07:57:24;17.30;;;11.13;;
64199;SDS011;50516;52.272;5.136;2024-02-26T07:59:49;15.50;;;10.85;;
64199;SDS011;50516;52.272;5.136;2024-02-26T08:02:15;19.80;;;10.27;;
64199;SDS011;50516;52.272;5.136;2024-02-26T08:04:41;16.00;;;9.38;;
64199;SDS011;50516;52.272;5.136;2024-02-26T08:07:06;15.43;;;10.32;;
64199;SDS011;50516;52.272;5.136;2024-02-26T08:09:31;15.32;;;9.13;;
64199;SDS011;50516;52.272;5.136;2024-02-26T08:11:56;14.10;;;9.60;;
64199;SDS011;50516;52.272;5.136;2024-02-26T08:14:22;14.88;;;9.23;;
64199;SDS011;50516;52.272;5.136;2024-02-26T08:16:47;14.00;;;8.63;;
64199;SDS011;50516;52.272;5.136;2024-02-26T08:19:13;12.93;;;8.57;;
64199;SDS011;50516;52.272;5.136;2024-02-26T08:21:40;13.50;;;8.25;;
64199;SDS011;50516;52.272;5.136;2024-02-26T08:24:05;11.88;;;8.20;;
64199;SDS011;50516;52.272;5.136;2024-02-26T08:26:31;11.32;;;7.85;;
64199;SDS011;50516;52.272;5.136;2024-02-26T08:28:56;20.63;;;9.25;;
64199;SDS011;50516;52.272;5.136;2024-02-26T08:31:23;15.43;;;7.70;;
64199;SDS011;50516;52.272;5.136;2024-02-26T08:33:48;12.30;;;7.80;;
64199;SDS011;50516;52.272;5.136;2024-02-26T08:36:14;12.85;;;7.15;;
64199;SDS011;50516;52.272;5.136;2024-02-26T08:38:39;12.02;;;7.55;;
64199;SDS011;50516;52.272;5.136;2024-02-26T08:41:04;11.00;;;6.95;;
64199;SDS011;50516;52.272;5.136;2024-02-26T08:43:30;10.85;;;6.90;;
64199;SDS011;50516;52.272;5.136;2024-02-26T08:45:56;10.95;;;7.00;;
64199;SDS011;50516;52.272;5.136;2024-02-26T08:48:21;10.35;;;6.35;;
64199;SDS011;50516;52.272;5.136;2024-02-26T08:50:47;10.05;;;6.15;;
64199;SDS011;50516;52.272;5.136;2024-02-26T08:53:12;12.25;;;7.10;;
64199;SDS011;50516;52.272;5.136;2024-02-26T08:55:37;9.73;;;6.05;;
64199;SDS011;50516;52.272;5.136;2024-02-26T08:58:03;9.55;;;5.82;;
64199;SDS011;50516;52.272;5.136;2024-02-26T09:00:28;10.90;;;6.22;;
64199;SDS011;50516;52.272;5.136;2024-02-26T09:02:53;9.70;;;7.05;;
64199;SDS011;50516;52.272;5.136;2024-02-26T09:05:19;10.05;;;7.03;;
64199;SDS011;50516;52.272;5.136;2024-02-26T09:07:44;12.35;;;5.97;;
64199;SDS011;50516;52.272;5.136;2024-02-26T09:10:10;9.27;;;5.63;;
64199;SDS011;50516;52.272;5.136;2024-02-26T09:12:35;9.18;;;6.05;;
64199;SDS011;50516;52.272;5.136;2024-02-26T09:15:01;9.77;;;6.15;;
64199;SDS011;50516;52.272;5.136;2024-02-26T09:17:26;9.35;;;5.68;;
64199;SDS011;50516;52.272;5.136;2024-02-26T09:19:52;8.20;;;5.43;;
64199;SDS011;50516;52.272;5.136;2024-02-26T09:22:17;9.25;;;5.70;;
64199;SDS011;50516;52.272;5.136;2024-02-26T09:24:42;9.57;;;5.75;;
64199;SDS011;50516;52.272;5.136;2024-02-26T09:27:07;8.65;;;5.35;;
64199;SDS011;50516;52.272;5.136;2024-02-26T09:29:34;8.70;;;6.55;;
64199;SDS011;50516;52.272;5.136;2024-02-26T09:32:00;7.72;;;5.15;;
64199;SDS011;50516;52.272;5.136;2024-02-26T09:34:26;9.50;;;5.93;;
64199;SDS011;50516;52.272;5.136;2024-02-26T09:36:51;8.57;;;5.13;;
64199;SDS011;50516;52.272;5.136;2024-02-26T09:39:16;10.30;;;5.93;;
64199;SDS011;50516;52.272;5.136;2024-02-26T09:41:46;10.55;;;6.05;;
64199;SDS011;50516;52.272;5.136;2024-02-26T09:44:11;8.27;;;5.57;;
64199;SDS011;50516;52.272;5.136;2024-02-26T09:46:40;8.23;;;5.18;;
64199;SDS011;50516;52.272;5.136;2024-02-26T09:49:06;9.27;;;5.90;;
64199;SDS011;50516;52.272;5.136;2024-02-26T09:51:33;10.30;;;6.28;;
64199;SDS011;50516;52.272;5.136;2024-02-26T09:53:59;8.90;;;6.03;;
64199;SDS011;50516;52.272;5.136;2024-02-26T09:56:26;10.90;;;6.10;;
64199;SDS011;50516;52.272;5.136;2024-02-26T09:58:52;9.77;;;6.25;;
64199;SDS011;50516;52.272;5.136;2024-02-26T10:01:19;7.53;;;5.55;;
64199;SDS011;50516;52.272;5.136;2024-02-26T10:03:46;10.70;;;5.72;;
64199;SDS011;50516;52.272;5.136;2024-02-26T10:06:17;10.85;;;6.82;;
64199;SDS011;50516;52.272;5.136;2024-02-26T10:08:43;8.13;;;6.05;;
64199;SDS011;50516;52.272;5.136;2024-02-26T10:11:08;9.95;;;6.63;;
64199;SDS011;50516;52.272;5.136;2024-02-26T10:13:35;8.30;;;5.85;;
64199;SDS011;50516;52.272;5.136;2024-02-26T10:16:01;10.93;;;5.40;;
64199;SDS011;50516;52.272;5.136;2024-02-26T10:18:44;8.80;;;6.15;;
64199;SDS011;50516;52.272;5.136;2024-02-26T10:21:12;10.40;;;6.35;;
64199;SDS011;50516;52.272;5.136;2024-02-26T10:23:38;7.28;;;5.45;;
64199;SDS011;50516;52.272;5.136;2024-02-26T10:26:04;9.50;;;6.53;;
64199;SDS011;50516;52.272;5.136;2024-02-26T10:28:29;7.13;;;5.60;;
64199;SDS011;50516;52.272;5.136;2024-02-26T10:30:55;8.85;;;5.93;;
64199;SDS011;50516;52.272;5.136;2024-02-26T10:33:20;10.60;;;6.22;;
64199;SDS011;50516;52.272;5.136;2024-02-26T10:35:46;11.18;;;5.68;;
64199;SDS011;50516;52.272;5.136;2024-02-26T10:38:12;8.70;;;5.45;;
64199;SDS011;50516;52.272;5.136;2024-02-26T10:40:38;11.73;;;5.55;;
64199;SDS011;50516;52.272;5.136;2024-02-26T10:43:04;8.43;;;6.00;;
64199;SDS011;50516;52.272;5.136;2024-02-26T10:45:29;9.45;;;6.00;;
64199;SDS011;50516;52.272;5.136;2024-02-26T10:47:54;9.50;;;5.88;;
64199;SDS011;50516;52.272;5.136;2024-02-26T10:50:19;9.32;;;5.47;;
64199;SDS011;50516;52.272;5.136;2024-02-26T10:52:45;8.32;;;5.43;;
64199;SDS011;50516;52.272;5.136;2024-02-26T10:55:16;9.45;;;5.97;;
64199;SDS011;50516;52.272;5.136;2024-02-26T10:57:45;8.80;;;5.85;;
64199;SDS011;50516;52.272;5.136;2024-02-26T11:00:13;10.35;;;6.57;;
64199;SDS011;50516;52.272;5.136;2024-02-26T11:02:40;9.05;;;5.90;;
64199;SDS011;50516;52.272;5.136;2024-02-26T11:05:06;10.75;;;5.97;;
64199;SDS011;50516;52.272;5.136;2024-02-26T11:07:34;11.57;;;6.03;;
64199;SDS011;50516;52.272;5.136;2024-02-26T11:10:00;9.05;;;6.47;;
64199;SDS011;50516;52.272;5.136;2024-02-26T11:12:30;8.57;;;5.80;;
64199;SDS011;50516;52.272;5.136;2024-02-26T11:14:57;8.50;;;5.60;;
64199;SDS011;50516;52.272;5.136;2024-02-26T11:17:26;10.45;;;5.25;;
64199;SDS011;50516;52.272;5.136;2024-02-26T11:19:54;9.48;;;5.20;;
64199;SDS011;50516;52.272;5.136;2024-02-26T11:22:20;9.15;;;6.03;;
64199;SDS011;50516;52.272;5.136;2024-02-26T11:24:47;10.85;;;5.50;;
64199;SDS011;50516;52.272;5.136;2024-02-26T11:27:13;10.35;;;5.43;;
64199;SDS011;50516;52.272;5.136;2024-02-26T11:29:50;8.60;;;5.68;;
64199;SDS011;50516;52.272;5.136;2024-02-26T11:32:17;9.98;;;5.10;;
64199;SDS011;50516;52.272;5.136;2024-02-26T11:34:42;7.95;;;5.13;;
64199;SDS011;50516;52.272;5.136;2024-02-26T11:37:12;12.30;;;5.45;;
64199;SDS011;50516;52.272;5.136;2024-02-26T11:39:42;8.55;;;5.25;;
64199;SDS011;50516;52.272;5.136;2024-02-26T11:42:10;7.30;;;4.72;;
64199;SDS011;50516;52.272;5.136;2024-02-26T11:44:39;9.27;;;5.05;;
64199;SDS011;50516;52.272;5.136;2024-02-26T11:47:13;9.77;;;5.03;;
64199;SDS011;50516;52.272;5.136;2024-02-26T11:49:39;7.07;;;4.82;;
64199;SDS011;50516;52.272;5.136;2024-02-26T11:52:08;9.10;;;5.60;;
64199;SDS011;50516;52.272;5.136;2024-02-26T11:55:07;10.57;;;4.97;;
64199;SDS011;50516;52.272;5.136;2024-02-26T11:57:29;7.70;;;4.90;;
64199;SDS011;50516;52.272;5.136;2024-02-26T12:05:18;7.55;;;5.22;;
64199;SDS011;50516;52.272;5.136;2024-02-26T12:07:55;9.25;;;4.80;;
64199;SDS011;50516;52.272;5.136;2024-02-26T12:10:30;8.18;;;4.85;;
64199;SDS011;50516;52.272;5.136;2024-02-26T12:13:02;6.57;;;4.30;;
64199;SDS011;50516;52.272;5.136;2024-02-26T12:15:41;8.27;;;4.65;;
64199;SDS011;50516;52.272;5.136;2024-02-26T12:18:08;7.18;;;4.70;;
64199;SDS011;50516;52.272;5.136;2024-02-26T12:20:36;6.53;;;4.47;;
64199;SDS011;50516;52.272;5.136;2024-02-26T12:23:02;6.82;;;4.57;;
64199;SDS011;50516;52.272;5.136;2024-02-26T12:25:31;6.05;;;4.28;;
64199;SDS011;50516;52.272;5.136;2024-02-26T12:27:58;11.65;;;4.90;;
64199;SDS011;50516;52.272;5.136;2024-02-26T12:30:24;8.25;;;4.45;;
64199;SDS011;50516;52.272;5.136;2024-02-26T12:32:54;7.82;;;4.53;;
64199;SDS011;50516;52.272;5.136;2024-02-26T12:35:25;6.60;;;4.10;;
64199;SDS011;50516;52.272;5.136;2024-02-26T12:37:52;7.15;;;4.80;;
64199;SDS011;50516;52.272;5.136;2024-02-26T12:40:18;7.75;;;4.55;;
64199;SDS011;50516;52.272;5.136;2024-02-26T12:42:44;7.22;;;4.75;;
64199;SDS011;50516;52.272;5.136;2024-02-26T12:45:11;6.13;;;4.13;;
64199;SDS011;50516;52.272;5.136;2024-02-26T12:47:41;7.20;;;4.88;;
64199;SDS011;50516;52.272;5.136;2024-02-26T12:50:07;7.68;;;4.35;;
64199;SDS011;50516;52.272;5.136;2024-02-26T12:52:34;5.82;;;3.53;;
64199;SDS011;50516;52.272;5.136;2024-02-26T12:55:04;6.90;;;4.70;;
64199;SDS011;50516;52.272;5.136;2024-02-26T12:57:32;6.60;;;3.90;;
64199;SDS011;50516;52.272;5.136;2024-02-26T13:00:01;7.70;;;4.47;;
64199;SDS011;50516;52.272;5.136;2024-02-26T13:02:28;7.43;;;4.32;;
64199;SDS011;50516;52.272;5.136;2024-02-26T13:04:55;7.85;;;4.53;;
64199;SDS011;50516;52.272;5.136;2024-02-26T13:07:22;6.47;;;4.35;;
64199;SDS011;50516;52.272;5.136;2024-02-26T13:09:47;8.30;;;4.15;;
64199;SDS011;50516;52.272;5.136;2024-02-26T13:12:13;7.95;;;4.65;;
64199;SDS011;50516;52.272;5.136;2024-02-26T13:14:39;7.93;;;4.38;;
64199;SDS011;50516;52.272;5.136;2024-02-26T13:17:04;6.05;;;4.28;;
64199;SDS011;50516;52.272;5.136;2024-02-26T13:19:30;8.80;;;4.20;;
64199;SDS011;50516;52.272;5.136;2024-02-26T13:21:55;8.35;;;4.22;;
64199;SDS011;50516;52.272;5.136;2024-02-26T13:24:21;6.13;;;4.00;;
64199;SDS011;50516;52.272;5.136;2024-02-26T13:26:56;8.23;;;4.13;;
64199;SDS011;50516;52.272;5.136;2024-02-26T13:29:22;7.43;;;4.13;;
64199;SDS011;50516;52.272;5.136;2024-02-26T13:31:47;6.28;;;4.47;;
64199;SDS011;50516;52.272;5.136;2024-02-26T13:34:25;7.15;;;4.30;;
64199;SDS011;50516;52.272;5.136;2024-02-26T13:36:52;8.13;;;4.18;;
64199;SDS011;50516;52.272;5.136;2024-02-26T13:39:25;6.95;;;4.25;;
64199;SDS011;50516;52.272;5.136;2024-02-26T13:41:52;4.90;;;3.50;;
64199;SDS011;50516;52.272;5.136;2024-02-26T13:44:18;4.75;;;3.47;;
64199;SDS011;50516;52.272;5.136;2024-02-26T13:46:44;5.32;;;3.70;;
64199;SDS011;50516;52.272;5.136;2024-02-26T13:49:09;7.07;;;4.10;;
64199;SDS011;50516;52.272;5.136;2024-02-26T13:51:36;6.43;;;3.50;;
64199;SDS011;50516;52.272;5.136;2024-02-26T13:54:02;7.82;;;4.00;;
64199;SDS011;50516;52.272;5.136;2024-02-26T13:56:28;6.00;;;3.70;;
64199;SDS011;50516;52.272;5.136;2024-02-26T13:58:53;6.07;;;4.07;;
64199;SDS011;50516;52.272;5.136;2024-02-26T14:01:19;8.15;;;3.65;;
64199;SDS011;50516;52.272;5.136;2024-02-26T14:03:44;5.32;;;3.60;;
64199;SDS011;50516;52.272;5.136;2024-02-26T14:06:10;7.78;;;3.90;;
64199;SDS011;50516;52.272;5.136;2024-02-26T14:08:35;6.20;;;3.95;;
64199;SDS011;50516;52.272;5.136;2024-02-26T14:11:01;6.47;;;3.40;;
64199;SDS011;50516;52.272;5.136;2024-02-26T14:13:26;4.93;;;3.55;;
64199;SDS011;50516;52.272;5.136;2024-02-26T14:15:52;5.85;;;3.58;;
64199;SDS011;50516;52.272;5.136;2024-02-26T14:18:17;7.00;;;4.15;;
64199;SDS011;50516;52.272;5.136;2024-02-26T14:20:43;6.78;;;3.38;;
64199;SDS011;50516;52.272;5.136;2024-02-26T14:23:09;3.90;;;2.83;;
64199;SDS011;50516;52.272;5.136;2024-02-26T14:25:35;5.57;;;2.88;;
64199;SDS011;50516;52.272;5.136;2024-02-26T14:28:01;4.55;;;3.00;;
64199;SDS011;50516;52.272;5.136;2024-02-26T14:30:26;6.30;;;3.08;;
64199;SDS011;50516;52.272;5.136;2024-02-26T14:32:52;4.65;;;3.17;;
64199;SDS011;50516;52.272;5.136;2024-02-26T14:35:17;7.22;;;3.20;;